createdAt,value
2022-09-20T00:00:30.178Z,7.80
2022-09-20T00:03:17.814Z,7.80
2022-09-20T00:05:45.765Z,7.80
2022-09-20T00:08:16.217Z,7.83
2022-09-20T00:10:44.380Z,7.84
2022-09-20T00:13:13.833Z,7.84
2022-09-20T00:15:48.381Z,7.85
2022-09-20T00:18:22.484Z,7.86
2022-09-20T00:20:53.137Z,7.88
2022-09-20T00:23:20.263Z,7.87
2022-09-20T00:25:58.578Z,7.93
2022-09-20T00:28:32.681Z,7.96
2022-09-20T00:31:19.464Z,8.01
2022-09-20T00:34:06.389Z,8.00
2022-09-20T00:36:33.821Z,7.97
2022-09-20T00:39:07.446Z,7.93
2022-09-20T00:41:34.632Z,7.91
2022-09-20T00:44:42.597Z,7.92
2022-09-20T00:47:36.344Z,7.93
2022-09-20T00:50:22.387Z,7.94
2022-09-20T00:53:09.059Z,7.94
2022-09-20T00:55:45.779Z,7.91
2022-09-20T00:58:14.070Z,7.96
2022-09-20T01:00:46.573Z,7.98
2022-09-20T01:03:22.327Z,7.99
2022-09-20T01:05:53.459Z,7.99
2022-09-20T01:08:32.837Z,8.02
2022-09-20T01:11:00.744Z,8.04
2022-09-20T01:13:28.404Z,8.04
2022-09-20T01:16:04.956Z,8.06
2022-09-20T01:18:43.368Z,8.07
2022-09-20T01:21:17.220Z,8.10
2022-09-20T01:24:00.487Z,8.13
2022-09-20T01:26:34.427Z,8.15
2022-09-20T01:29:31.240Z,8.15
2022-09-20T01:32:03.567Z,8.19
2022-09-20T01:34:36.986Z,8.21
2022-09-20T01:37:26.249Z,8.21
2022-09-20T01:40:00.415Z,8.22
2022-09-20T01:42:37.984Z,8.24
2022-09-20T01:45:30.624Z,8.26
2022-09-20T01:48:22.659Z,8.30
2022-09-20T01:51:06.501Z,8.30
2022-09-20T01:53:54.696Z,8.30
2022-09-20T01:57:04.454Z,8.29
2022-09-20T01:59:54.985Z,8.28
2022-09-20T02:02:56.630Z,8.22
2022-09-20T02:05:33.401Z,8.15
2022-09-20T02:08:25.049Z,8.12
2022-09-20T02:11:04.967Z,8.07
2022-09-20T02:13:56.662Z,8.02
2022-09-20T02:16:39.665Z,7.96
2022-09-20T02:19:52.558Z,7.92
2022-09-20T02:23:00.217Z,7.83
2022-09-20T02:25:59.984Z,7.75
2022-09-20T02:28:49.002Z,7.65
2022-09-20T02:31:59.177Z,7.58
2022-09-20T02:34:49.621Z,7.51
2022-09-20T02:38:02.189Z,7.45
2022-09-20T02:40:59.190Z,7.37
2022-09-20T02:44:06.467Z,7.30
2022-09-20T02:46:34.800Z,7.30
2022-09-20T02:49:17.700Z,7.28
2022-09-20T02:52:07.694Z,7.27
2022-09-20T02:54:58.303Z,7.26
2022-09-20T02:57:37.124Z,7.22
2022-09-20T03:00:25.459Z,7.17
2022-09-20T03:03:19.947Z,7.12
2022-09-20T03:06:05.638Z,7.03
2022-09-20T03:09:26.572Z,6.98
2022-09-20T03:12:33.035Z,6.95
2022-09-20T03:15:40.057Z,6.91
2022-09-20T03:19:04.339Z,6.85
2022-09-20T03:24:56.421Z,6.73
2022-09-20T03:27:48.653Z,6.66
2022-09-20T03:30:40.950Z,6.64
2022-09-20T03:33:23.327Z,6.61
2022-09-20T03:36:11.348Z,6.58
2022-09-20T03:39:06.301Z,6.52
2022-09-20T03:41:51.065Z,6.48
2022-09-20T03:45:05.167Z,6.45
2022-09-20T03:48:07.574Z,6.44
2022-09-20T03:50:43.404Z,6.39
2022-09-20T03:53:58.500Z,6.34
2022-09-20T03:56:31.194Z,6.31
2022-09-20T03:59:29.728Z,6.31
2022-09-20T04:02:42.162Z,6.31
2022-09-20T04:05:52.189Z,6.35
2022-09-20T04:08:40.485Z,6.35
2022-09-20T04:11:24.756Z,6.35
2022-09-20T04:14:29.515Z,6.38
2022-09-20T04:17:22.951Z,6.41
2022-09-20T04:20:13.017Z,6.42
2022-09-20T04:22:43.470Z,6.41
2022-09-20T04:25:19.081Z,6.41
2022-09-20T04:27:55.542Z,6.40
2022-09-20T04:30:37.096Z,6.41
2022-09-20T04:33:28.013Z,6.45
2022-09-20T04:36:28.502Z,6.50
2022-09-20T04:39:14.267Z,6.58
2022-09-20T04:42:45.946Z,6.69
2022-09-20T04:45:22.142Z,6.77
2022-09-20T04:48:08.429Z,6.83
2022-09-20T04:50:57.399Z,6.88
2022-09-20T04:53:53.668Z,6.91
2022-09-20T04:56:21.764Z,6.94
2022-09-20T04:59:07.493Z,6.98
2022-09-20T05:02:16.378Z,6.99
2022-09-20T05:05:30.964Z,7.03
2022-09-20T05:08:28.765Z,7.08
2022-09-20T05:11:06.159Z,7.08
2022-09-20T05:14:00.520Z,7.16
2022-09-20T05:16:44.005Z,7.18
2022-09-20T05:19:43.208Z,7.18
2022-09-20T05:22:49.936Z,7.20
2022-09-20T05:25:54.384Z,7.24
2022-09-20T05:28:30.728Z,7.32
2022-09-20T05:31:19.137Z,7.38
2022-09-20T05:34:19.574Z,7.51
2022-09-20T05:37:09.283Z,7.66
2022-09-20T05:40:02.715Z,7.86
2022-09-20T05:42:49.818Z,8.06
2022-09-20T05:45:42.496Z,8.19
2022-09-20T05:49:06.603Z,8.38
2022-09-20T05:52:00.391Z,8.58
2022-09-20T05:55:26.073Z,8.71
2022-09-20T05:58:15.699Z,8.80
2022-09-20T06:00:53.122Z,8.91
2022-09-20T06:03:57.852Z,8.87
2022-09-20T06:06:45.791Z,9.02
2022-09-20T06:09:55.293Z,9.15
2022-09-20T06:12:50.502Z,9.24
2022-09-20T06:15:37.741Z,9.35
2022-09-20T06:18:20.651Z,9.44
2022-09-20T06:20:50.427Z,9.58
2022-09-20T06:23:20.851Z,9.67
2022-09-20T06:26:14.440Z,9.78
2022-09-20T06:28:46.842Z,9.83
2022-09-20T06:31:15.008Z,9.86
2022-09-20T06:33:49.831Z,9.83
2022-09-20T06:36:52.480Z,9.93
2022-09-20T06:40:00.428Z,10.08
2022-09-20T06:42:29.215Z,10.22
2022-09-20T06:44:56.778Z,10.34
2022-09-20T06:47:25.583Z,10.43
2022-09-20T06:49:53.520Z,10.46
2022-09-20T06:52:27.593Z,10.51
2022-09-20T06:54:56.547Z,10.54
2022-09-20T06:57:31.251Z,10.59
2022-09-20T06:59:58.351Z,10.60
2022-09-20T07:02:34.875Z,10.64
2022-09-20T07:05:01.877Z,10.70
2022-09-20T07:07:28.783Z,10.85
2022-09-20T07:09:57.953Z,10.99
2022-09-20T07:12:38.551Z,11.14
2022-09-20T07:15:07.120Z,11.24
2022-09-20T07:17:34.388Z,11.40
2022-09-20T07:20:01.463Z,11.60
2022-09-20T07:22:28.392Z,11.78
2022-09-20T07:24:55.309Z,11.97
2022-09-20T07:27:22.826Z,12.12
2022-09-20T07:29:52.373Z,12.23
2022-09-20T07:32:19.193Z,12.34
2022-09-20T07:34:49.132Z,12.42
2022-09-20T07:37:18.086Z,12.34
2022-09-20T07:39:45.383Z,12.39
2022-09-20T07:42:12.856Z,12.45
2022-09-20T07:44:41.718Z,12.44
2022-09-20T07:47:13.952Z,12.38
2022-09-20T07:50:09.303Z,12.37
2022-09-20T07:52:50.592Z,12.32
2022-09-20T07:55:21.328Z,12.36
2022-09-20T07:57:48.206Z,12.36
2022-09-20T08:00:15.443Z,12.34
2022-09-20T08:02:42.254Z,12.30
2022-09-20T08:05:09.130Z,12.24
2022-09-20T08:07:35.960Z,12.07
2022-09-20T08:10:04.050Z,12.08
2022-09-20T08:15:23.933Z,12.35
2022-09-20T08:17:50.732Z,12.48
2022-09-20T08:20:17.868Z,12.49
2022-09-20T08:22:44.669Z,12.48
2022-09-20T08:25:17.137Z,12.53
2022-09-20T08:27:43.869Z,12.22
2022-09-20T08:30:15.128Z,12.22
2022-09-20T08:32:41.966Z,12.24
2022-09-20T08:35:13.624Z,12.29
2022-09-20T08:37:43.136Z,12.37
2022-09-20T08:40:15.324Z,12.33
2022-09-20T08:42:44.793Z,12.40
2022-09-20T08:45:34.801Z,12.47
2022-09-20T08:48:14.200Z,12.43
2022-09-20T08:50:41.533Z,12.41
2022-09-20T08:53:13.706Z,12.56
2022-09-20T08:55:42.872Z,12.58
2022-09-20T08:58:14.347Z,12.55
2022-09-20T09:00:58.798Z,12.52
2022-09-20T09:03:27.784Z,12.74
2022-09-20T09:05:57.669Z,12.97
2022-09-20T09:08:30.369Z,13.17
2022-09-20T09:11:01.429Z,13.24
2022-09-20T09:13:48.476Z,13.20
2022-09-20T09:16:23.064Z,13.17
2022-09-20T09:18:57.260Z,13.29
2022-09-20T09:21:29.710Z,13.36
2022-09-20T09:24:08.961Z,13.43
2022-09-20T09:26:40.522Z,13.57
2022-09-20T09:29:19.748Z,13.64
2022-09-20T09:31:53.346Z,13.70
2022-09-20T09:34:25.584Z,13.93
2022-09-20T09:36:55.267Z,14.21
2022-09-20T09:39:27.810Z,14.28
2022-09-20T09:42:00.456Z,14.35
2022-09-20T09:44:41.764Z,14.35
2022-09-20T09:47:27.035Z,14.20
2022-09-20T09:50:06.131Z,14.01
2022-09-20T09:52:36.287Z,13.91
2022-09-20T09:55:05.595Z,13.77
2022-09-20T09:58:10.071Z,13.65
2022-09-20T10:00:42.625Z,13.32
2022-09-20T10:03:15.520Z,13.11
2022-09-20T10:05:54.354Z,13.01
2022-09-20T10:08:46.497Z,13.01
2022-09-20T10:11:28.033Z,13.12
2022-09-20T10:14:34.626Z,13.30
2022-09-20T10:17:26.065Z,13.52
2022-09-20T10:20:07.537Z,13.73
2022-09-20T10:22:34.665Z,14.10
2022-09-20T10:25:23.463Z,14.42
2022-09-20T10:28:23.960Z,14.58
2022-09-20T10:31:26.781Z,14.56
2022-09-20T10:34:24.056Z,14.22
2022-09-20T10:37:00.323Z,14.05
2022-09-20T10:39:38.337Z,13.97
2022-09-20T10:42:42.426Z,13.98
2022-09-20T10:45:59.500Z,13.96
2022-09-20T10:48:42.214Z,14.16
2022-09-20T10:51:30.415Z,14.50
2022-09-20T10:54:20.649Z,14.75
2022-09-20T10:56:55.881Z,14.85
2022-09-20T10:59:39.436Z,14.95
2022-09-20T11:02:34.667Z,15.03
2022-09-20T11:05:29.866Z,15.08
2022-09-20T11:08:13.195Z,15.06
2022-09-20T11:10:42.789Z,14.95
2022-09-20T11:13:40.360Z,14.84
2022-09-20T11:16:47.348Z,14.76
2022-09-20T11:19:35.291Z,14.72
2022-09-20T11:22:12.778Z,14.68
2022-09-20T11:24:50.235Z,14.64
2022-09-20T11:27:37.620Z,14.75
2022-09-20T11:30:22.228Z,14.94
2022-09-20T11:32:54.212Z,15.08
2022-09-20T11:35:42.188Z,15.24
2022-09-20T11:38:32.087Z,15.42
2022-09-20T11:41:19.149Z,15.58
2022-09-20T11:43:48.600Z,15.69
2022-09-20T11:46:26.664Z,15.76
2022-09-20T11:49:07.280Z,15.74
2022-09-20T11:52:16.916Z,15.80
2022-09-20T11:55:01.976Z,15.97
2022-09-20T11:57:33.272Z,16.19
2022-09-20T12:00:03.009Z,16.37
2022-09-20T12:02:48.381Z,16.43
2022-09-20T12:05:31.632Z,16.45
2022-09-20T12:08:01.685Z,16.42
2022-09-20T12:10:34.246Z,16.30
2022-09-20T12:13:08.228Z,16.07
2022-09-20T12:15:38.669Z,15.92
2022-09-20T12:18:28.346Z,15.80
2022-09-20T12:20:59.784Z,15.31
2022-09-20T12:23:45.262Z,15.07
2022-09-20T12:26:38.725Z,14.73
2022-09-20T12:29:23.918Z,14.49
2022-09-20T12:31:54.340Z,14.38
2022-09-20T12:34:21.082Z,14.08
2022-09-20T12:36:53.718Z,14.12
2022-09-20T12:39:29.985Z,14.11
2022-09-20T12:42:00.054Z,14.17
2022-09-20T12:44:44.092Z,14.12
2022-09-20T12:47:10.842Z,13.79
2022-09-20T12:50:05.799Z,13.65
2022-09-20T12:52:56.836Z,13.70
2022-09-20T12:55:42.070Z,13.48
2022-09-20T12:58:14.876Z,13.27
2022-09-20T13:01:00.681Z,13.20
2022-09-20T13:03:36.583Z,13.24
2022-09-20T13:06:06.500Z,13.18
2022-09-20T13:09:03.941Z,13.06
2022-09-20T13:11:45.184Z,12.95
2022-09-20T13:14:30.875Z,12.79
2022-09-20T13:17:03.460Z,12.98
2022-09-20T13:19:48.368Z,13.03
2022-09-20T13:22:41.700Z,13.08
2022-09-20T13:25:15.281Z,13.01
2022-09-20T13:27:54.344Z,13.01
2022-09-20T13:30:23.897Z,12.98
2022-09-20T13:32:51.300Z,12.88
2022-09-20T13:35:21.669Z,12.93
2022-09-20T13:37:55.739Z,12.94
2022-09-20T13:40:36.015Z,12.82
2022-09-20T13:43:23.660Z,12.85
2022-09-20T13:45:57.204Z,12.84
2022-09-20T13:48:28.114Z,12.80
2022-09-20T13:50:57.206Z,12.76
2022-09-20T13:53:41.651Z,12.78
2022-09-20T13:56:21.275Z,12.93
2022-09-20T13:58:49.727Z,13.01
2022-09-20T14:01:26.213Z,12.95
2022-09-20T14:03:54.073Z,12.85
2022-09-20T14:06:29.234Z,12.83
2022-09-20T14:08:59.080Z,12.77
2022-09-20T14:11:29.621Z,12.74
2022-09-20T14:13:58.137Z,12.73
2022-09-20T14:16:44.547Z,12.59
2022-09-20T14:19:15.350Z,12.55
2022-09-20T14:21:43.190Z,12.59
2022-09-20T14:24:10.071Z,12.55
2022-09-20T14:26:39.823Z,12.45
2022-09-20T14:29:30.179Z,12.39
2022-09-20T14:32:01.626Z,12.34
2022-09-20T14:34:28.559Z,12.24
2022-09-20T14:37:06.289Z,12.20
2022-09-20T14:39:44.891Z,12.09
2022-09-20T14:42:40.633Z,12.06
2022-09-20T14:45:19.957Z,11.97
2022-09-20T14:47:57.807Z,11.97
2022-09-20T14:50:34.713Z,11.95
2022-09-20T14:53:22.467Z,11.95
2022-09-20T14:55:58.632Z,11.85
2022-09-20T14:58:26.847Z,11.85
2022-09-20T15:00:55.015Z,11.83
2022-09-20T15:03:35.018Z,11.89
2022-09-20T15:06:02.588Z,11.92
2022-09-20T15:08:29.726Z,11.97
2022-09-20T15:10:59.188Z,11.92
2022-09-20T15:13:26.515Z,11.83
2022-09-20T15:15:53.876Z,11.74
2022-09-20T15:18:23.462Z,11.70
2022-09-20T15:20:50.953Z,11.69
2022-09-20T15:23:18.910Z,11.63
2022-09-20T15:25:49.332Z,11.63
2022-09-20T15:28:16.785Z,11.59
2022-09-20T15:30:45.318Z,11.61
2022-09-20T15:33:13.453Z,11.59
2022-09-20T15:35:41.964Z,11.64
2022-09-20T15:38:11.210Z,11.68
2022-09-20T15:40:42.208Z,11.68
2022-09-20T15:43:20.979Z,11.69
2022-09-20T15:45:55.234Z,11.70
2022-09-20T15:48:25.019Z,11.62
2022-09-20T15:51:01.499Z,11.56
2022-09-20T15:53:36.988Z,11.59
2022-09-20T15:56:14.754Z,11.62
2022-09-20T15:59:00.482Z,11.45
2022-09-20T16:01:41.836Z,11.44
2022-09-20T16:04:09.909Z,11.35
2022-09-20T16:06:38.528Z,11.30
2022-09-20T16:09:06.024Z,11.24
2022-09-20T16:11:33.600Z,11.21
2022-09-20T16:14:00.931Z,11.23
2022-09-20T16:16:29.670Z,11.18
2022-09-20T16:19:15.198Z,11.20
2022-09-20T16:21:48.289Z,11.11
2022-09-20T16:24:16.900Z,11.08
2022-09-20T16:26:44.494Z,11.14
2022-09-20T16:29:11.293Z,11.16
2022-09-20T16:31:41.418Z,11.14
2022-09-20T16:34:16.329Z,11.06
2022-09-20T16:36:44.944Z,11.04
2022-09-20T16:39:14.113Z,11.01
2022-09-20T16:41:45.092Z,11.00
2022-09-20T16:44:12.738Z,10.96
2022-09-20T16:46:39.997Z,10.94
2022-09-20T16:49:09.065Z,10.88
2022-09-20T16:51:38.071Z,10.84
2022-09-20T16:54:11.700Z,10.81
2022-09-20T16:56:44.755Z,10.80
2022-09-20T16:59:16.703Z,10.79
2022-09-20T17:01:44.412Z,10.79
2022-09-20T17:04:13.885Z,10.81
2022-09-20T17:06:43.032Z,10.83
2022-09-20T17:09:10.839Z,10.79
2022-09-20T17:11:43.442Z,10.75
2022-09-20T17:14:10.496Z,10.75
2022-09-20T17:16:39.999Z,10.68
2022-09-20T17:19:10.440Z,10.62
2022-09-20T17:21:43.210Z,10.56
2022-09-20T17:24:10.792Z,10.48
2022-09-20T17:26:41.249Z,10.37
2022-09-20T17:29:10.217Z,10.28
2022-09-20T17:31:41.073Z,10.18
2022-09-20T17:34:10.530Z,10.10
2022-09-20T17:36:42.711Z,10.00
2022-09-20T17:39:12.286Z,9.88
2022-09-20T17:41:45.871Z,9.85
2022-09-20T17:44:13.490Z,9.83
2022-09-20T17:46:42.737Z,9.79
2022-09-20T17:49:12.114Z,9.74
2022-09-20T17:51:41.518Z,9.69
2022-09-20T17:54:13.055Z,9.63
2022-09-20T17:56:43.052Z,9.58
2022-09-20T17:59:11.988Z,9.53
2022-09-20T18:01:42.721Z,9.50
2022-09-20T18:04:11.434Z,9.44
2022-09-20T18:06:54.585Z,9.39
2022-09-20T18:09:25.615Z,9.32
2022-09-20T18:12:11.786Z,9.26
2022-09-20T18:14:43.700Z,9.20
2022-09-20T18:17:14.524Z,9.14
2022-09-20T18:19:44.534Z,9.08
2022-09-20T18:22:13.557Z,9.01
2022-09-20T18:24:57.721Z,8.99
2022-09-20T18:27:27.119Z,9.03
2022-09-20T18:29:55.782Z,9.08
2022-09-20T18:38:17.270Z,9.07
2022-09-20T18:41:05.612Z,9.04
2022-09-20T18:43:37.374Z,9.04
2022-09-20T18:46:04.630Z,9.02
2022-09-20T18:48:34.062Z,9.01
2022-09-20T18:51:08.390Z,8.95
2022-09-20T18:53:37.525Z,8.86
2022-09-20T18:56:29.665Z,8.85
2022-09-20T18:59:03.066Z,8.80
2022-09-20T19:01:57.795Z,8.84
2022-09-20T19:05:12.538Z,8.83
2022-09-20T19:08:01.474Z,8.75
2022-09-20T19:10:45.539Z,8.70
2022-09-20T19:13:32.234Z,8.68
2022-09-20T19:16:19.662Z,8.64
2022-09-20T19:19:19.698Z,8.61
2022-09-20T19:22:15.106Z,8.57
2022-09-20T19:25:02.811Z,8.53
2022-09-20T19:27:35.280Z,8.47
2022-09-20T19:30:03.203Z,8.43
2022-09-20T19:32:34.691Z,8.40
2022-09-20T19:35:07.734Z,8.38
2022-09-20T19:37:40.568Z,8.33
2022-09-20T19:40:13.721Z,8.32
2022-09-20T19:43:04.860Z,8.30
2022-09-20T19:45:47.600Z,8.21
2022-09-20T19:48:46.699Z,8.16
2022-09-20T19:51:14.815Z,8.13
2022-09-20T19:53:42.355Z,8.13
2022-09-20T19:56:22.306Z,8.07
2022-09-20T19:58:53.658Z,8.07
2022-09-20T20:01:27.000Z,8.05
2022-09-20T20:03:58.402Z,8.00
2022-09-20T20:06:34.518Z,8.00
2022-09-20T20:09:10.118Z,8.00
2022-09-20T20:11:53.455Z,8.00
2022-09-20T20:14:38.000Z,7.99
2022-09-20T20:17:20.485Z,7.97
2022-09-20T20:20:15.947Z,7.95
2022-09-20T20:22:47.440Z,7.93
2022-09-20T20:25:43.928Z,7.92
2022-09-20T20:28:13.017Z,7.93
2022-09-20T20:30:42.189Z,7.97
2022-09-20T20:33:19.928Z,8.01
2022-09-20T20:36:14.667Z,8.07
2022-09-20T20:38:49.103Z,8.10
2022-09-20T20:41:20.801Z,8.11
2022-09-20T20:43:51.646Z,8.07
2022-09-20T20:46:18.600Z,8.05
2022-09-20T20:48:47.438Z,8.02
2022-09-20T20:51:20.397Z,8.01
2022-09-20T20:53:52.159Z,7.98
2022-09-20T20:56:44.401Z,7.92
2022-09-20T20:59:11.347Z,7.85
2022-09-20T21:01:44.902Z,7.81
2022-09-20T21:04:13.144Z,7.75
2022-09-20T21:06:41.762Z,7.69
2022-09-20T21:09:10.243Z,7.67
2022-09-20T21:11:43.659Z,7.61
2022-09-20T21:14:12.128Z,7.55
2022-09-20T21:16:42.566Z,7.44
2022-09-20T21:19:16.220Z,7.43
2022-09-20T21:21:45.524Z,7.42
2022-09-20T21:24:17.748Z,7.38
2022-09-20T21:26:50.613Z,7.30
2022-09-20T21:29:21.684Z,7.32
2022-09-20T21:31:48.823Z,7.30
2022-09-20T21:34:16.420Z,7.30
2022-09-20T21:36:46.660Z,7.26
2022-09-20T21:39:14.088Z,7.25
2022-09-20T21:41:41.515Z,7.25
2022-09-20T21:44:10.247Z,7.21
2022-09-20T21:46:52.710Z,7.19
2022-09-20T21:49:20.455Z,7.19
2022-09-20T21:51:51.540Z,7.20
2022-09-20T21:54:19.487Z,7.22
2022-09-20T21:56:48.691Z,7.23
2022-09-20T21:59:16.301Z,7.25
2022-09-20T22:01:48.927Z,7.25
2022-09-20T22:04:16.250Z,7.28
2022-09-20T22:06:45.027Z,7.29
2022-09-20T22:09:16.528Z,7.28
2022-09-20T22:11:48.435Z,7.26
2022-09-20T22:14:20.339Z,7.28
2022-09-20T22:16:49.238Z,7.27
2022-09-20T22:19:20.034Z,7.27
2022-09-20T22:21:53.310Z,7.32
2022-09-20T22:24:21.238Z,7.36
2022-09-20T22:26:53.045Z,7.32
2022-09-20T22:29:23.530Z,7.37
2022-09-20T22:31:55.662Z,7.36
2022-09-20T22:34:27.490Z,7.42
2022-09-20T22:36:55.464Z,7.41
2022-09-20T22:39:22.818Z,7.40
2022-09-20T22:41:51.005Z,7.39
2022-09-20T22:44:18.066Z,7.35
2022-09-20T22:46:45.456Z,7.30
2022-09-20T22:49:14.901Z,7.25
2022-09-20T22:51:41.861Z,7.25
2022-09-20T22:54:11.601Z,7.26
2022-09-20T22:56:43.058Z,7.31
2022-09-20T22:59:17.016Z,7.41
2022-09-20T23:01:46.667Z,7.46
2022-09-20T23:04:19.845Z,7.51
2022-09-20T23:10:05.725Z,7.62
2022-09-20T23:12:43.031Z,7.67
2022-09-20T23:15:13.307Z,7.71
2022-09-20T23:17:41.567Z,7.73
2022-09-20T23:20:09.077Z,7.75
2022-09-20T23:22:36.048Z,7.78
2022-09-20T23:25:03.542Z,7.80
2022-09-20T23:27:33.369Z,7.81
2022-09-20T23:30:02.530Z,7.82
2022-09-20T23:32:32.340Z,7.81
2022-09-20T23:34:59.663Z,7.77
2022-09-20T23:37:26.679Z,7.78
2022-09-20T23:39:54.036Z,7.78
2022-09-20T23:42:21.227Z,7.77
2022-09-20T23:44:51.001Z,7.81
2022-09-20T23:47:19.260Z,7.80
2022-09-20T23:49:47.613Z,7.78
2022-09-20T23:52:15.150Z,7.81
2022-09-20T23:54:55.063Z,7.82
2022-09-20T23:57:27.781Z,7.81
2022-09-20T23:59:58.754Z,7.87
